Nearby METAR Reports

 

EGGP - Liverpool Airpor, United Kingdom
Distance from station: ESE 7mi, 11km
Updated: 21/04/2024 21:50
Clear
Clear
 Wind from N
Wind: N 6 mph , 9 km/h
Temperature: 10°C
Wind Chill: 9°C
Dew Point: 6°C
Humidity: 76%
Barometer: 1032 hPa
Summary: Clear
Visibility: greater than 7 miles , 10 km
2024/04/21 20:50 EGGP 212050Z 36005KT 320V030 CAVOK 10/06 Q1032
EGNR - Hawarden (aut), United Kingdom
Distance from station: S 13mi, 20km
Updated: 21/04/2024 17:50
NOT Current
Partly cloudy
Partly cloudy
 Wind from NNW
Wind: NNW 8 mph , 13 km/h
Temperature: 13°C
Dew Point: 6°C
Humidity: 63%
Barometer: 1032 hPa
Clouds: Partly cloudy
Visibility: 6 miles , 10 km
Cloud details: Partly cloudy 1006 m
Partly cloudy 1280 m
2024/04/21 16:50 EGNR 211650Z 34007KT 310V010 9999 SCT033 SCT042 13/06 Q1032
EGOW - Woodvale Raf, United Kingdom
Distance from station: N 16mi, 26km
Updated: 21/04/2024 14:20
NOT Current
Partly cloudy
Partly cloudy
 Wind from NNW
Wind: NNW 9 mph , 15 km/h
Temperature: 12°C
Dew Point: 5°C
Humidity: 63%
Barometer: 1032 hPa
Clouds: Partly cloudy
Visibility: 6 miles , 10 km
Cloud details: Few Clouds 853 m
Partly cloudy 1067 m
2024/04/21 13:20 EGOW 211320Z 33008KT 9999 FEW028 SCT035 12/05 Q1032 RMK BLU
 
EGNO - Wharton, United Kingdom
Distance from station: N 28mi, 45km
Updated: 19/04/2024 16:50
NOT Current
Few Clouds
Few Clouds
 Wind from NNW
Wind: NNW 15 mph , 24 km/h
Temperature: 12°C
Dew Point: 5°C
Humidity: 63%
Barometer: 1020 hPa
Clouds: Few Clouds
Visibility: 6 miles , 10 km
Cloud details: Few Clouds 762 m
2024/04/19 15:50 EGNO 191550Z 33013KT 9999 FEW025 12/05 Q1020
EGNH - Blackpool Airpor, United Kingdom
Distance from station: N 29mi, 47km
Updated: 21/04/2024 20:50
NOT Current
Mostly cloudy
Mostly cloudy
 Wind from N
Wind: N 8 mph , 13 km/h
Temperature: 10°C
Wind Chill: 8°C
Dew Point: 7°C
Humidity: 82%
Barometer: 1032 hPa
Clouds: Mostly cloudy
Visibility: 6 miles , 10 km
Cloud details: Mostly cloudy 1219 m
2024/04/21 19:50 EGNH 211950Z 36007KT 9999 BKN040 10/07 Q1032
EGCC - Manchester Intl, United Kingdom
Distance from station: E 31mi, 49km
Updated: 21/04/2024 21:50
Mostly cloudy
Mostly cloudy
 Wind from NE
Wind: NE 8 mph , 13 km/h
Temperature: 9°C
Wind Chill: 7°C
Dew Point: -3°C
Humidity: 43%
Barometer: 1032 hPa
Clouds: Mostly cloudy
Visibility: 6 miles , 10 km
Cloud details: Mostly cloudy 1219 m
2024/04/21 20:50 EGCC 212050Z AUTO 05007KT 9999 BKN040 09/M03 Q1032 NOSIG
 
EGOS - Shawbury Raf, United Kingdom
Distance from station: SSE 40mi, 65km
Updated: 21/04/2024 21:50
Overcast
Overcast
 Wind from N
Wind: N 5 mph , 7 km/h
Temperature: 9°C
Wind Chill: 8°C
Dew Point: 5°C
Humidity: 76%
Barometer: 1031 hPa
Clouds: Overcast
Visibility: 6 miles , 10 km
Cloud details: Overcast 1433 m
2024/04/21 20:50 EGOS 212050Z AUTO 01004KT 9999 OVC047/// 09/05 Q1031